createdAt,value
2019-04-13T00:01:15.001Z,20.97
2019-04-13T00:06:28.309Z,18.53
2019-04-13T00:11:54.756Z,19.43
2019-04-13T00:17:00.538Z,20.13
2019-04-13T00:22:06.509Z,21.80
2019-04-13T00:27:12.270Z,21.60
2019-04-13T00:32:19.425Z,21.77
2019-04-13T00:37:25.347Z,19.03
2019-04-13T00:42:31.272Z,21.77
2019-04-13T00:47:37.001Z,23.53
2019-04-13T00:52:42.779Z,22.80
2019-04-13T00:57:49.710Z,20.30
2019-04-13T01:02:56.332Z,22.40
2019-04-13T01:08:02.416Z,25.40
2019-04-13T01:13:08.325Z,18.43
2019-04-13T01:18:14.799Z,18.67
2019-04-13T01:23:20.500Z,22.17
2019-04-13T01:28:26.642Z,22.60
2019-04-13T01:33:32.307Z,24.13
2019-04-13T01:38:39.759Z,17.70
2019-04-13T01:43:45.986Z,19.47
2019-04-13T01:48:52.336Z,16.43
2019-04-13T01:54:16.978Z,21.63
2019-04-13T01:59:22.590Z,23.50
2019-04-13T02:05:00.207Z,21.80
2019-04-13T02:10:16.168Z,20.07
2019-04-13T02:15:22.099Z,19.23
2019-04-13T02:20:28.300Z,23.30
2019-04-13T02:25:34.367Z,22.23
2019-04-13T02:30:40.170Z,19.40
2019-04-13T02:35:46.266Z,17.40
2019-04-13T02:40:51.895Z,20.03
2019-04-13T02:45:57.779Z,18.73
2019-04-13T02:51:04.043Z,16.27
2019-04-13T02:56:10.198Z,19.87
2019-04-13T03:01:16.072Z,19.60
2019-04-13T03:06:21.659Z,16.00
2019-04-13T03:11:27.423Z,19.07
2019-04-13T03:16:53.026Z,17.30
2019-04-13T03:21:58.607Z,18.60
2019-04-13T03:27:04.371Z,21.57
2019-04-13T03:32:10.158Z,19.47
2019-04-13T03:37:15.884Z,18.90
2019-04-13T03:42:22.106Z,26.60
2019-04-13T03:47:28.293Z,20.30
2019-04-13T03:52:33.987Z,21.27
2019-04-13T03:57:39.958Z,22.43
2019-04-13T04:02:45.710Z,21.00
2019-04-13T04:07:51.990Z,28.90
2019-04-13T04:12:57.890Z,19.97
2019-04-13T04:18:03.952Z,23.67
2019-04-13T04:23:11.247Z,16.37
2019-04-13T04:28:16.985Z,23.20
2019-04-13T04:33:23.566Z,19.20
2019-04-13T04:38:29.829Z,22.60
2019-04-13T04:43:36.177Z,20.17
2019-04-13T04:48:42.109Z,19.50
2019-04-13T04:53:48.227Z,20.23
2019-04-13T04:58:53.917Z,21.50
2019-04-13T05:03:59.764Z,21.20
2019-04-13T05:09:06.273Z,22.00
2019-04-13T05:14:12.048Z,18.03
2019-04-13T05:19:17.857Z,22.00
2019-04-13T05:24:23.896Z,18.33
2019-04-13T05:29:29.725Z,19.60
2019-04-13T05:34:35.504Z,18.73
2019-04-13T05:39:41.436Z,17.50
2019-04-13T05:44:47.453Z,19.83
2019-04-13T05:49:55.529Z,20.87
2019-04-13T05:55:03.580Z,18.67
2019-04-13T06:00:11.071Z,19.20
2019-04-13T06:05:16.824Z,19.13
2019-04-13T06:10:41.550Z,18.00
2019-04-13T06:15:47.326Z,19.13
2019-04-13T06:20:53.264Z,19.57
2019-04-13T06:26:03.676Z,21.90
2019-04-13T06:31:35.683Z,21.00
2019-04-13T06:36:41.919Z,22.37
2019-04-13T06:41:48.228Z,20.20
2019-04-13T06:46:54.459Z,21.37
2019-04-13T06:59:16.711Z,20.63
2019-04-13T07:11:48.341Z,22.10
2019-04-13T07:23:43.820Z,21.83
2019-04-13T07:28:53.919Z,19.73
2019-04-13T07:34:22.003Z,21.33
2019-04-13T07:39:48.936Z,24.87
2019-04-13T07:45:19.858Z,21.10
2019-04-13T07:50:47.972Z,21.57
2019-04-13T07:55:57.415Z,21.10
2019-04-13T08:01:05.233Z,28.33
2019-04-13T08:06:11.234Z,23.87
2019-04-13T08:11:17.152Z,22.57
2019-04-13T08:16:29.422Z,24.23
2019-04-13T08:21:38.228Z,25.57
2019-04-13T08:26:46.490Z,20.87
2019-04-13T08:31:52.342Z,18.43
2019-04-13T08:37:03.488Z,18.47
2019-04-13T08:42:18.834Z,18.30
2019-04-13T08:47:15.774Z,20.83
2019-04-13T08:52:21.857Z,22.03
2019-04-13T08:57:27.771Z,16.57
2019-04-13T09:02:33.953Z,25.10
2019-04-13T09:07:41.418Z,15.07
2019-04-13T09:12:50.137Z,16.27
2019-04-13T09:18:12.090Z,19.47
2019-04-13T09:23:18.581Z,21.40
2019-04-13T09:28:25.950Z,19.37
2019-04-13T09:33:35.746Z,14.07
2019-04-13T09:38:46.282Z,10.10
2019-04-13T09:44:11.440Z,13.70
2019-04-13T09:49:19.780Z,15.27
2019-04-13T09:54:26.483Z,19.90
2019-04-13T09:59:33.220Z,9.00
2019-04-13T10:04:39.500Z,29.10
2019-04-13T10:09:45.185Z,24.10
2019-04-13T10:15:01.622Z,21.67
2019-04-13T10:20:10.815Z,8.20
2019-04-13T10:25:21.054Z,18.30
2019-04-13T10:30:27.176Z,14.33
2019-04-13T10:35:33.442Z,16.40
2019-04-13T10:40:39.354Z,21.63
2019-04-13T10:46:22.163Z,23.83
2019-04-13T10:51:51.630Z,14.20
2019-04-13T10:56:59.559Z,18.47
2019-04-13T11:02:09.516Z,10.53
2019-04-13T11:07:16.442Z,11.67
2019-04-13T11:12:22.226Z,15.43
2019-04-13T11:17:29.234Z,22.40
2019-04-13T11:22:37.450Z,25.82
2019-04-13T11:27:43.244Z,18.07
2019-04-13T11:32:49.034Z,21.37
2019-04-13T11:37:54.904Z,24.87
2019-04-13T11:43:21.242Z,10.65
2019-04-13T11:48:52.191Z,25.02
2019-04-13T11:53:58.039Z,23.73
2019-04-13T11:59:04.164Z,25.62
2019-04-13T12:04:29.744Z,29.45
2019-04-13T12:10:01.848Z,27.15
2019-04-13T12:15:39.369Z,25.20
2019-04-13T12:21:05.898Z,28.20
2019-04-13T12:26:11.946Z,30.15
2019-04-13T12:31:19.014Z,26.40
2019-04-13T12:36:26.094Z,24.30
2019-04-13T12:41:37.289Z,20.95
2019-04-13T12:46:43.469Z,27.67
2019-04-13T12:51:49.455Z,24.85
2019-04-13T12:56:55.942Z,29.75
2019-04-13T13:02:30.200Z,25.92
2019-04-13T13:07:41.067Z,27.75
2019-04-13T13:12:46.812Z,28.65
2019-04-13T13:17:54.611Z,32.17
2019-04-13T13:23:00.014Z,23.32
2019-04-13T13:28:07.154Z,29.95
2019-04-13T13:33:12.970Z,24.45
2019-04-13T13:38:18.621Z,24.87
2019-04-13T13:43:24.490Z,27.22
2019-04-13T13:49:05.655Z,26.20
2019-04-13T13:55:12.798Z,26.90
2019-04-13T14:00:31.941Z,28.27
2019-04-13T14:05:38.072Z,30.45
2019-04-13T14:10:48.815Z,24.15
2019-04-13T14:15:55.534Z,28.40
2019-04-13T14:21:04.349Z,27.42
2019-04-13T14:26:10.593Z,33.60
2019-04-13T14:31:16.438Z,29.60
2019-04-13T14:36:22.417Z,27.82
2019-04-13T14:41:28.115Z,26.50
2019-04-13T14:46:34.150Z,27.30
2019-04-13T14:51:53.706Z,26.65
2019-04-13T14:57:00.141Z,30.60
2019-04-13T15:02:07.461Z,29.40
2019-04-13T15:07:13.657Z,29.23
2019-04-13T15:12:20.964Z,27.15
2019-04-13T15:17:27.740Z,28.12
2019-04-13T15:22:36.475Z,25.97
2019-04-13T15:27:44.532Z,29.02
2019-04-13T15:32:49.441Z,25.80
2019-04-13T15:37:56.028Z,27.02
2019-04-13T15:43:06.875Z,25.65
2019-04-13T15:48:09.882Z,25.70
2019-04-13T15:53:20.264Z,24.30
2019-04-13T15:58:51.175Z,25.20
2019-04-13T16:03:58.079Z,24.92
2019-04-13T16:09:18.516Z,25.88
2019-04-13T16:14:28.880Z,29.02
2019-04-13T16:19:35.185Z,25.62
2019-04-13T16:25:01.015Z,23.32
2019-04-13T16:31:07.652Z,24.07
2019-04-13T16:36:18.357Z,20.35
2019-04-13T16:41:32.183Z,29.17
2019-04-13T16:46:47.135Z,26.47
2019-04-13T16:52:15.725Z,25.17
2019-04-13T16:58:13.581Z,29.47
2019-04-13T17:03:41.125Z,26.20
2019-04-13T17:09:18.789Z,26.60
2019-04-13T17:14:26.945Z,29.10
2019-04-13T17:20:09.937Z,29.50
2019-04-13T17:25:39.198Z,27.03
2019-04-13T17:31:26.313Z,23.90
2019-04-13T17:36:34.174Z,29.90
2019-04-13T17:42:06.285Z,31.13
2019-04-13T17:47:35.108Z,30.43
2019-04-13T17:53:06.231Z,40.23
2019-04-13T17:58:30.002Z,35.10
2019-04-13T18:04:14.449Z,30.77
2019-04-13T18:09:39.437Z,27.97
2019-04-13T18:15:03.351Z,32.07
2019-04-13T18:20:11.324Z,27.17
2019-04-13T18:25:32.377Z,28.47
2019-04-13T18:30:33.490Z,30.33
2019-04-13T18:35:43.142Z,27.30
2019-04-13T18:40:51.990Z,21.10
2019-04-13T18:46:01.546Z,30.90
2019-04-13T18:51:06.566Z,28.27
2019-04-13T18:56:12.629Z,27.57
2019-04-13T19:01:20.662Z,28.90
2019-04-13T19:06:27.912Z,28.80
2019-04-13T19:11:34.354Z,30.03
2019-04-13T19:16:40.430Z,28.80
2019-04-13T19:22:49.918Z,33.83
2019-04-13T19:27:56.750Z,28.97
2019-04-13T19:33:21.579Z,32.07
2019-04-13T19:38:27.594Z,27.37
2019-04-13T19:43:33.960Z,28.00
2019-04-13T19:48:39.690Z,28.77
2019-04-13T19:53:53.271Z,31.97
2019-04-13T19:58:59.460Z,30.03
2019-04-13T20:04:07.229Z,28.20
2019-04-13T20:09:13.523Z,32.57
2019-04-13T20:14:21.109Z,30.07
2019-04-13T20:19:27.441Z,31.13
2019-04-13T20:24:34.111Z,25.23
2019-04-13T20:29:40.331Z,29.83
2019-04-13T20:34:46.618Z,32.27
2019-04-13T20:40:07.828Z,30.50
2019-04-13T20:45:13.714Z,31.37
2019-04-13T20:50:20.390Z,32.00
2019-04-13T20:55:26.766Z,31.80
2019-04-13T21:00:33.465Z,37.43
2019-04-13T21:05:40.536Z,41.63
2019-04-13T21:10:46.515Z,35.40
2019-04-13T21:15:53.150Z,37.17
2019-04-13T21:20:59.943Z,35.07
2019-04-13T21:26:08.723Z,36.53
2019-04-13T21:31:14.974Z,36.60
2019-04-13T21:36:21.697Z,32.13
2019-04-13T21:41:28.186Z,35.37
2019-04-13T21:46:44.043Z,34.43
2019-04-13T21:52:17.012Z,34.23
2019-04-13T21:57:24.067Z,33.40
2019-04-13T22:02:36.018Z,37.83
2019-04-13T22:07:42.322Z,33.73
2019-04-13T22:12:48.407Z,38.87
2019-04-13T22:17:55.309Z,39.60
2019-04-13T22:23:02.031Z,31.33
2019-04-13T22:28:11.898Z,38.37
2019-04-13T22:33:17.501Z,37.10
2019-04-13T22:38:24.017Z,35.53
2019-04-13T22:43:30.501Z,35.10
2019-04-13T22:48:58.151Z,31.33
2019-04-13T22:54:21.109Z,37.63
2019-04-13T22:59:27.056Z,34.37
2019-04-13T23:04:34.107Z,37.10
2019-04-13T23:09:40.978Z,41.70
2019-04-13T23:14:57.498Z,35.80
2019-04-13T23:19:56.641Z,30.50
2019-04-13T23:25:02.838Z,35.07
2019-04-13T23:30:09.467Z,32.80
2019-04-13T23:35:15.308Z,34.50
2019-04-13T23:40:22.425Z,34.03
2019-04-13T23:45:33.518Z,30.77
2019-04-13T23:50:38.049Z,31.87
2019-04-13T23:55:55.453Z,29.20
